createdAt,value
2022-10-13T04:00:23.173Z,80.93
2022-10-13T04:03:25.859Z,80.93
2022-10-13T04:06:29.402Z,81.91
2022-10-13T04:09:31.723Z,82.65
2022-10-13T04:12:33.757Z,82.37
2022-10-13T04:15:37.665Z,82.19
2022-10-13T04:18:44.356Z,82.33
2022-10-13T04:21:47.141Z,81.75
2022-10-13T04:24:49.214Z,81.58
2022-10-13T04:27:51.570Z,81.94
2022-10-13T04:30:53.617Z,81.64
2022-10-13T04:33:56.724Z,81.96
2022-10-13T04:36:58.741Z,82.17
2022-10-13T04:40:01.050Z,81.51
2022-10-13T04:43:03.201Z,81.55
2022-10-13T04:46:26.406Z,81.11
2022-10-13T04:49:29.469Z,81.16
2022-10-13T04:52:31.759Z,81.26
2022-10-13T04:55:36.235Z,81.88
2022-10-13T04:58:39.834Z,81.27
2022-10-13T05:01:42.162Z,81.44
2022-10-13T05:04:48.374Z,81.15
2022-10-13T05:07:50.849Z,81.29
2022-10-13T05:11:01.414Z,81.24
2022-10-13T05:14:03.554Z,80.78
2022-10-13T05:17:05.893Z,81.11
2022-10-13T05:20:08.778Z,81.19
2022-10-13T05:23:11.339Z,80.99
2022-10-13T05:26:16.697Z,81.39
2022-10-13T05:29:19.303Z,81.69
2022-10-13T05:32:22.070Z,81.22
2022-10-13T05:35:25.775Z,80.76
2022-10-13T05:38:27.874Z,81.48
2022-10-13T05:41:31.000Z,81.44
2022-10-13T05:44:33.076Z,81.36
2022-10-13T05:47:35.370Z,81.50
2022-10-13T05:50:37.742Z,81.92
2022-10-13T05:53:49.160Z,82.15
2022-10-13T05:56:59.534Z,81.43
2022-10-13T06:00:11.220Z,81.85
2022-10-13T06:03:17.541Z,82.45
2022-10-13T06:06:25.848Z,83.40
2022-10-13T06:09:37.922Z,82.53
2022-10-13T06:12:40.285Z,83.10
2022-10-13T06:15:42.333Z,82.45
2022-10-13T06:18:44.640Z,81.52
2022-10-13T06:21:48.226Z,81.88
2022-10-13T06:24:50.493Z,81.70
2022-10-13T06:27:52.566Z,82.32
2022-10-13T06:30:56.822Z,81.55
2022-10-13T06:33:59.666Z,81.40
2022-10-13T06:37:01.962Z,80.63
2022-10-13T06:40:04.433Z,80.56
2022-10-13T06:43:07.015Z,81.00
2022-10-13T06:46:15.262Z,81.37
2022-10-13T06:49:17.938Z,82.37
2022-10-13T06:52:20.233Z,82.81
2022-10-13T06:55:23.016Z,83.39
2022-10-13T06:58:25.305Z,83.55
2022-10-13T07:01:27.659Z,83.82
2022-10-13T07:04:29.732Z,83.75
2022-10-13T07:07:33.177Z,83.08
2022-10-13T07:10:38.247Z,83.04
2022-10-13T07:13:46.133Z,82.36
2022-10-13T07:16:50.721Z,81.80
2022-10-13T07:19:57.148Z,81.15
2022-10-13T07:23:00.206Z,81.52
2022-10-13T07:26:07.453Z,79.33
2022-10-13T07:29:09.646Z,78.44
2022-10-13T07:32:11.957Z,72.23
2022-10-13T07:35:14.036Z,73.03
2022-10-13T07:38:16.471Z,71.72
2022-10-13T07:41:18.806Z,71.90
2022-10-13T07:44:21.110Z,71.09
2022-10-13T07:47:23.371Z,69.32
2022-10-13T07:50:25.675Z,71.74
2022-10-13T07:53:28.068Z,69.33
2022-10-13T07:56:30.486Z,66.14
2022-10-13T07:59:33.817Z,65.56
2022-10-13T08:02:36.102Z,68.15
2022-10-13T08:05:39.296Z,66.58
2022-10-13T08:08:41.344Z,63.93
2022-10-13T08:11:47.003Z,64.34
2022-10-13T08:14:52.175Z,65.71
2022-10-13T08:17:54.593Z,63.33
2022-10-13T08:24:25.473Z,62.56
2022-10-13T08:27:47.642Z,63.28
2022-10-13T08:30:51.838Z,64.55
2022-10-13T08:33:53.978Z,64.15
2022-10-13T08:36:57.388Z,61.22
2022-10-13T08:39:59.498Z,59.97
2022-10-13T08:43:07.021Z,60.64
2022-10-13T08:46:12.818Z,59.96
2022-10-13T08:49:17.278Z,59.58
2022-10-13T08:52:24.579Z,59.26
2022-10-13T08:55:48.615Z,60.83
2022-10-13T08:58:54.244Z,59.26
2022-10-13T09:01:57.479Z,61.82
2022-10-13T09:05:02.768Z,58.34
2022-10-13T09:08:15.751Z,59.17
2022-10-13T09:11:18.357Z,59.03
2022-10-13T09:14:32.629Z,58.75
2022-10-13T09:17:35.892Z,57.18
2022-10-13T09:20:39.109Z,56.28
2022-10-13T09:23:42.048Z,56.89
2022-10-13T09:26:45.942Z,56.47
2022-10-13T09:29:48.032Z,56.59
2022-10-13T09:32:50.338Z,56.60
2022-10-13T09:36:02.264Z,58.11
2022-10-13T09:39:08.982Z,56.18
2022-10-13T09:42:27.081Z,57.64
2022-10-13T09:45:32.654Z,56.07
2022-10-13T09:48:36.777Z,56.46
2022-10-13T09:51:41.791Z,57.11
2022-10-13T09:54:50.999Z,57.79
2022-10-13T09:57:55.990Z,58.81
2022-10-13T10:00:59.294Z,57.26
2022-10-13T10:04:07.027Z,57.51
2022-10-13T10:07:18.763Z,58.31
2022-10-13T10:10:33.306Z,57.23
2022-10-13T10:13:37.140Z,56.42
2022-10-13T10:16:46.214Z,57.32
2022-10-13T10:19:59.472Z,58.32
2022-10-13T10:23:25.888Z,55.79
2022-10-13T10:26:51.273Z,56.10
2022-10-13T10:30:05.841Z,57.82
2022-10-13T10:33:40.197Z,56.87
2022-10-13T10:36:53.700Z,57.35
2022-10-13T10:40:27.314Z,56.75
2022-10-13T10:43:38.875Z,58.24
2022-10-13T10:46:47.042Z,57.82
2022-10-13T10:49:53.411Z,57.99
2022-10-13T10:53:04.946Z,58.69
2022-10-13T10:56:24.566Z,59.34
2022-10-13T10:59:40.342Z,59.91
2022-10-13T11:03:08.340Z,58.71
2022-10-13T11:06:16.451Z,58.59
2022-10-13T11:09:41.722Z,57.79
2022-10-13T11:12:46.862Z,59.14
2022-10-13T11:15:49.557Z,58.71
2022-10-13T11:19:12.982Z,58.82
2022-10-13T11:22:20.733Z,59.20
2022-10-13T11:25:41.856Z,59.45
2022-10-13T11:28:46.315Z,58.62
2022-10-13T11:31:53.227Z,58.39
2022-10-13T11:35:05.753Z,57.16
2022-10-13T11:38:23.812Z,57.22
2022-10-13T11:41:33.796Z,57.95
2022-10-13T11:44:59.110Z,58.04
2022-10-13T11:48:10.735Z,58.08
2022-10-13T11:51:49.925Z,57.22
2022-10-13T11:55:01.390Z,58.58
2022-10-13T11:58:08.842Z,58.27
2022-10-13T12:01:14.806Z,58.79
2022-10-13T12:04:22.372Z,57.12
2022-10-13T12:07:28.190Z,57.21
2022-10-13T12:10:35.470Z,57.61
2022-10-13T12:13:37.934Z,57.72
2022-10-13T12:16:52.490Z,57.42
2022-10-13T12:19:56.741Z,57.35
2022-10-13T12:23:00.813Z,57.70
2022-10-13T12:26:03.454Z,56.65
2022-10-13T12:29:13.943Z,57.28
2022-10-13T12:32:38.120Z,58.30
2022-10-13T12:39:15.356Z,57.67
2022-10-13T12:42:33.017Z,58.44
2022-10-13T12:45:36.394Z,58.28
2022-10-13T12:48:39.863Z,58.03
2022-10-13T12:52:24.695Z,58.69
2022-10-13T12:55:32.284Z,58.90
2022-10-13T12:58:36.043Z,58.31
2022-10-13T13:01:40.290Z,58.83
2022-10-13T13:04:48.342Z,58.60
2022-10-13T13:07:53.871Z,58.46
2022-10-13T13:10:58.425Z,58.69
2022-10-13T13:14:39.238Z,58.83
2022-10-13T13:21:06.573Z,57.92
2022-10-13T13:24:21.816Z,57.56
2022-10-13T13:27:38.331Z,57.71
2022-10-13T13:30:41.534Z,57.82
2022-10-13T13:33:49.382Z,58.30
2022-10-13T13:37:05.719Z,59.59
2022-10-13T13:40:18.594Z,58.54
2022-10-13T13:43:20.680Z,58.50
2022-10-13T13:46:30.103Z,57.26
2022-10-13T13:49:32.385Z,58.10
2022-10-13T13:52:35.165Z,58.44
2022-10-13T13:55:37.893Z,57.83
2022-10-13T13:58:40.946Z,60.36
2022-10-13T14:01:43.470Z,59.19
2022-10-13T14:04:46.020Z,59.48
2022-10-13T14:07:48.065Z,59.40
2022-10-13T14:10:50.332Z,60.00
2022-10-13T14:13:53.174Z,59.55
2022-10-13T14:17:03.699Z,59.22
2022-10-13T14:20:06.259Z,59.11
2022-10-13T14:23:12.160Z,60.03
2022-10-13T14:26:15.146Z,59.18
2022-10-13T14:29:17.458Z,60.68
2022-10-13T14:32:19.788Z,59.10
2022-10-13T14:35:22.334Z,59.33
2022-10-13T14:38:24.388Z,59.88
2022-10-13T14:41:26.815Z,59.62
2022-10-13T14:44:28.829Z,60.34
2022-10-13T14:47:31.106Z,60.11
2022-10-13T14:50:33.697Z,60.54
2022-10-13T14:53:38.285Z,60.20
2022-10-13T14:56:40.458Z,60.20
2022-10-13T14:59:43.325Z,61.12
2022-10-13T15:02:45.354Z,61.02
2022-10-13T15:05:47.707Z,61.05
2022-10-13T15:08:53.298Z,62.00
2022-10-13T15:11:57.418Z,62.44
2022-10-13T15:14:59.440Z,63.21
2022-10-13T15:18:01.749Z,62.75
2022-10-13T15:21:03.881Z,62.85
2022-10-13T15:24:06.682Z,63.45
2022-10-13T15:27:08.878Z,63.44
2022-10-13T15:30:11.675Z,63.40
2022-10-13T15:33:13.790Z,64.00
